Bryan, TX

6:36 PM CST on March 02, 2015 (GMT -0600)
Caldwell | Change Station
CLOSE
Current Station
Airport
Location: Caldwell,
Elevation: 390 ft
Nearby Weather Stations
Active Advisory: Dense Fog Advisory

Elev 390 ft 30.52 °N, 96.70 °W | Updated 21 minutes ago

Fog
Fog
43 °F
Feels Like 41 °F
N
4
Wind Variable Wind from NNW

Today
High -- | Low -- °F
--% Chance of Precip.
Yesterday
High -- | Low -- °F
Precip. -- in
6:50 AM 6:24 PM
Waxing Gibbous, 93% visible
Pressure 30.22 in
Visibility 0.5 miles
Clouds Overcast 100 ft
Windchill 41 °F
Dew Point 43 °F
Humidity 100%
Rainfall 0.00 in
Snow Depth Not available.
UV 0 out of 12
Pollen 6.60 out of 12
Air Quality Not available.
Flu Activity Not available.
METAR KRWV 030015Z AUTO 34003KT 1/2SM FG OVC001 06/06 A3022 RMK AO2

More Conditions Fewer Conditions

Pressure 30.22 in
Visibility 0.5 miles
Clouds Overcast 100 ft
Windchill 41 °F
Dew Point 43 °F
Humidity 100%
Rainfall 0.00 in
Snow Depth Not available.
UV 0 out of 12
Pollen 6.60 out of 12
Air Quality Not available.
Flu Activity Not available.
METAR KRWV 030015Z AUTO 34003KT 1/2SM FG OVC001 06/06 A3022 RMK AO2

More Conditions Fewer Conditions

10-Day Weather Forecast

Almanac

Astronomy

Mar. 02, 2015 Rise Set
Actual Time
Civil Twilight
Nautical Twilight
Astronomical Twilight
Moon
Length of Visible Light
Length of Day
Tomorrow will be .
, % of the Moon is Illuminated

Today's Extremes

State Highs State Lows

Community

WunderPhotos

Upload Photos

1,802,006 photos uploaded!

WunderBlogs® & News

Nearby

Air Quality

  Air Quality AQ Index Pollutant
Not available.

Snow Depth

Station Depth Elevation

Earthquake Activity

City Distance Mag. Time & Date
Minimum magnitude displayed is 2.5.

Coastal Water Temperatures

Place Temperature

Nearby Weather Stations

Dense Fog Advisory
Statement as of 6:26 PM CST on March 02, 2015

... Dense fog advisory in effect until 10 am CST Tuesday...

The National Weather Service in Houston/Galveston has issued a
dense fog advisory... which is in effect until 10 am CST Tuesday.

* Event... dense fog with visibilities of less than 1/4 mile.

* Timing... beginning near the coast early this evening then
becoming more widespread inland through late evening. Improving
after 9 am.

* Impact... motorists should expect delays and drive with
additional caution.

Precautionary/preparedness actions...

A dense fog advisory means visibilities will frequently be
reduced to less than one quarter mile. If driving... slow down...
use your headlights... and leave plenty of distance ahead of you.